sensor_id;sensor_type;location;lat;lon;timestamp;temperature;humidity
24011;DHT22;12217;50.792;4.372;2023-04-01T00:00:18;9.80;99.90
24011;DHT22;12217;50.792;4.372;2023-04-01T00:02:43;9.80;99.90
24011;DHT22;12217;50.792;4.372;2023-04-01T00:05:10;9.80;99.90
24011;DHT22;12217;50.792;4.372;2023-04-01T00:07:37;9.80;99.90
24011;DHT22;12217;50.792;4.372;2023-04-01T00:10:05;9.80;99.90
24011;DHT22;12217;50.792;4.372;2023-04-01T00:12:31;9.70;99.90
24011;DHT22;12217;50.792;4.372;2023-04-01T00:14:56;9.80;99.90
24011;DHT22;12217;50.792;4.372;2023-04-01T00:17:22;9.70;99.90
24011;DHT22;12217;50.792;4.372;2023-04-01T00:19:48;9.80;99.90
24011;DHT22;12217;50.792;4.372;2023-04-01T00:22:13;9.90;99.90
24011;DHT22;12217;50.792;4.372;2023-04-01T00:24:40;9.90;99.90
24011;DHT22;12217;50.792;4.372;2023-04-01T00:27:06;9.80;99.90
24011;DHT22;12217;50.792;4.372;2023-04-01T00:29:33;9.80;99.90
24011;DHT22;12217;50.792;4.372;2023-04-01T00:32:00;9.90;99.90
24011;DHT22;12217;50.792;4.372;2023-04-01T00:34:26;9.90;99.90
24011;DHT22;12217;50.792;4.372;2023-04-01T00:36:51;9.90;99.90
24011;DHT22;12217;50.792;4.372;2023-04-01T00:39:18;9.90;99.90
24011;DHT22;12217;50.792;4.372;2023-04-01T00:41:44;9.80;99.90
24011;DHT22;12217;50.792;4.372;2023-04-01T00:44:22;9.70;99.90
24011;DHT22;12217;50.792;4.372;2023-04-01T00:46:49;9.70;99.90
24011;DHT22;12217;50.792;4.372;2023-04-01T00:49:17;9.80;99.90
24011;DHT22;12217;50.792;4.372;2023-04-01T00:51:46;9.80;99.90
24011;DHT22;12217;50.792;4.372;2023-04-01T00:54:14;9.90;99.90
24011;DHT22;12217;50.792;4.372;2023-04-01T00:57:18;9.90;99.90
24011;DHT22;12217;50.792;4.372;2023-04-01T00:59:48;10.00;99.90
24011;DHT22;12217;50.792;4.372;2023-04-01T01:02:15;10.10;99.90
24011;DHT22;12217;50.792;4.372;2023-04-01T01:04:41;10.10;99.90
24011;DHT22;12217;50.792;4.372;2023-04-01T01:10:02;9.90;99.90
24011;DHT22;12217;50.792;4.372;2023-04-01T01:12:46;9.80;99.90
24011;DHT22;12217;50.792;4.372;2023-04-01T01:15:32;10.00;99.90
24011;DHT22;12217;50.792;4.372;2023-04-01T01:36:26;10.10;99.90
24011;DHT22;12217;50.792;4.372;2023-04-01T01:38:54;10.10;99.90
24011;DHT22;12217;50.792;4.372;2023-04-01T01:41:22;10.10;99.90
24011;DHT22;12217;50.792;4.372;2023-04-01T01:43:53;10.20;99.90
24011;DHT22;12217;50.792;4.372;2023-04-01T01:46:23;10.20;99.90
24011;DHT22;12217;50.792;4.372;2023-04-01T01:48:50;10.10;99.90
24011;DHT22;12217;50.792;4.372;2023-04-01T01:51:18;9.90;99.90
24011;DHT22;12217;50.792;4.372;2023-04-01T01:53:44;9.90;99.90
24011;DHT22;12217;50.792;4.372;2023-04-01T01:56:11;9.80;99.90
24011;DHT22;12217;50.792;4.372;2023-04-01T01:58:47;9.90;99.90
24011;DHT22;12217;50.792;4.372;2023-04-01T02:01:16;9.90;99.90
24011;DHT22;12217;50.792;4.372;2023-04-01T02:03:43;9.90;99.90
24011;DHT22;12217;50.792;4.372;2023-04-01T02:06:14;9.90;99.90
24011;DHT22;12217;50.792;4.372;2023-04-01T02:09:01;9.90;99.90
24011;DHT22;12217;50.792;4.372;2023-04-01T02:11:58;9.90;99.90
24011;DHT22;12217;50.792;4.372;2023-04-01T02:14:55;10.10;99.90
24011;DHT22;12217;50.792;4.372;2023-04-01T02:17:26;10.10;99.90
24011;DHT22;12217;50.792;4.372;2023-04-01T02:20:04;10.10;99.90
24011;DHT22;12217;50.792;4.372;2023-04-01T02:22:35;10.10;99.90
24011;DHT22;12217;50.792;4.372;2023-04-01T02:25:08;10.10;99.90
24011;DHT22;12217;50.792;4.372;2023-04-01T02:27:35;10.00;99.90
24011;DHT22;12217;50.792;4.372;2023-04-01T02:30:01;10.10;99.90
24011;DHT22;12217;50.792;4.372;2023-04-01T02:32:28;10.20;99.90
24011;DHT22;12217;50.792;4.372;2023-04-01T02:34:55;10.20;99.90
24011;DHT22;12217;50.792;4.372;2023-04-01T02:37:21;10.20;99.90
24011;DHT22;12217;50.792;4.372;2023-04-01T02:39:47;10.20;99.90
24011;DHT22;12217;50.792;4.372;2023-04-01T02:42:14;10.20;99.90
24011;DHT22;12217;50.792;4.372;2023-04-01T02:44:40;10.20;99.90
24011;DHT22;12217;50.792;4.372;2023-04-01T02:47:05;10.20;99.90
24011;DHT22;12217;50.792;4.372;2023-04-01T02:49:31;10.20;99.90
24011;DHT22;12217;50.792;4.372;2023-04-01T02:51:56;10.30;99.90
24011;DHT22;12217;50.792;4.372;2023-04-01T02:54:22;10.10;99.90
24011;DHT22;12217;50.792;4.372;2023-04-01T02:56:48;10.00;99.90
24011;DHT22;12217;50.792;4.372;2023-04-01T02:59:14;10.10;99.90
24011;DHT22;12217;50.792;4.372;2023-04-01T03:01:40;10.10;99.90
24011;DHT22;12217;50.792;4.372;2023-04-01T03:04:06;10.30;99.90
24011;DHT22;12217;50.792;4.372;2023-04-01T03:06:31;10.30;99.90
24011;DHT22;12217;50.792;4.372;2023-04-01T03:08:57;10.20;99.90
24011;DHT22;12217;50.792;4.372;2023-04-01T03:11:22;10.10;99.90
24011;DHT22;12217;50.792;4.372;2023-04-01T03:13:48;10.10;99.90
24011;DHT22;12217;50.792;4.372;2023-04-01T03:16:14;10.10;99.90
24011;DHT22;12217;50.792;4.372;2023-04-01T03:18:40;9.90;99.90
24011;DHT22;12217;50.792;4.372;2023-04-01T03:21:18;9.80;99.90
24011;DHT22;12217;50.792;4.372;2023-04-01T03:23:44;9.70;99.90
24011;DHT22;12217;50.792;4.372;2023-04-01T03:26:10;9.70;99.90
24011;DHT22;12217;50.792;4.372;2023-04-01T03:28:36;9.70;99.90
24011;DHT22;12217;50.792;4.372;2023-04-01T03:31:02;9.70;99.90
24011;DHT22;12217;50.792;4.372;2023-04-01T03:33:28;9.70;99.90
24011;DHT22;12217;50.792;4.372;2023-04-01T03:35:53;9.70;99.90
24011;DHT22;12217;50.792;4.372;2023-04-01T03:38:19;9.70;99.90
24011;DHT22;12217;50.792;4.372;2023-04-01T03:40:45;9.90;99.90
24011;DHT22;12217;50.792;4.372;2023-04-01T03:43:11;10.00;99.90
24011;DHT22;12217;50.792;4.372;2023-04-01T03:45:44;9.90;99.90
24011;DHT22;12217;50.792;4.372;2023-04-01T03:48:10;9.80;99.90
24011;DHT22;12217;50.792;4.372;2023-04-01T03:50:36;10.00;99.90
24011;DHT22;12217;50.792;4.372;2023-04-01T03:53:01;10.10;99.90
24011;DHT22;12217;50.792;4.372;2023-04-01T03:55:27;10.10;99.90
24011;DHT22;12217;50.792;4.372;2023-04-01T03:57:53;10.10;99.90
24011;DHT22;12217;50.792;4.372;2023-04-01T04:00:18;10.00;99.90
24011;DHT22;12217;50.792;4.372;2023-04-01T04:02:44;9.90;99.90
24011;DHT22;12217;50.792;4.372;2023-04-01T04:05:10;9.70;99.90
24011;DHT22;12217;50.792;4.372;2023-04-01T04:07:36;9.80;99.90
24011;DHT22;12217;50.792;4.372;2023-04-01T04:10:02;9.80;99.90
24011;DHT22;12217;50.792;4.372;2023-04-01T04:12:27;9.70;99.90
24011;DHT22;12217;50.792;4.372;2023-04-01T04:14:53;9.60;99.90
24011;DHT22;12217;50.792;4.372;2023-04-01T04:17:19;9.70;99.90
24011;DHT22;12217;50.792;4.372;2023-04-01T04:19:44;9.70;99.90
24011;DHT22;12217;50.792;4.372;2023-04-01T04:22:10;9.70;99.90
24011;DHT22;12217;50.792;4.372;2023-04-01T04:24:36;9.80;99.90
24011;DHT22;12217;50.792;4.372;2023-04-01T04:27:02;9.90;99.90
24011;DHT22;12217;50.792;4.372;2023-04-01T04:29:28;9.90;99.90
24011;DHT22;12217;50.792;4.372;2023-04-01T04:31:53;9.90;99.90
24011;DHT22;12217;50.792;4.372;2023-04-01T04:34:19;10.00;99.90
24011;DHT22;12217;50.792;4.372;2023-04-01T04:36:45;10.00;99.90
24011;DHT22;12217;50.792;4.372;2023-04-01T04:39:10;9.80;99.90
24011;DHT22;12217;50.792;4.372;2023-04-01T04:41:39;9.90;99.90
24011;DHT22;12217;50.792;4.372;2023-04-01T04:44:04;9.70;99.90
24011;DHT22;12217;50.792;4.372;2023-04-01T04:46:30;9.70;99.90
24011;DHT22;12217;50.792;4.372;2023-04-01T04:48:57;9.70;99.90
24011;DHT22;12217;50.792;4.372;2023-04-01T04:51:23;9.70;99.90
24011;DHT22;12217;50.792;4.372;2023-04-01T04:53:49;9.80;99.90
24011;DHT22;12217;50.792;4.372;2023-04-01T04:56:19;10.00;99.90
24011;DHT22;12217;50.792;4.372;2023-04-01T04:58:45;10.10;99.90
24011;DHT22;12217;50.792;4.372;2023-04-01T05:01:13;9.90;99.90
24011;DHT22;12217;50.792;4.372;2023-04-01T05:03:39;9.90;99.90
24011;DHT22;12217;50.792;4.372;2023-04-01T05:06:05;10.00;99.90
24011;DHT22;12217;50.792;4.372;2023-04-01T05:08:31;9.90;99.90
24011;DHT22;12217;50.792;4.372;2023-04-01T05:10:58;9.90;99.90
24011;DHT22;12217;50.792;4.372;2023-04-01T05:13:24;9.80;99.90
24011;DHT22;12217;50.792;4.372;2023-04-01T05:15:50;9.70;99.90
24011;DHT22;12217;50.792;4.372;2023-04-01T05:18:16;9.80;99.90
24011;DHT22;12217;50.792;4.372;2023-04-01T05:20:49;9.80;99.90
24011;DHT22;12217;50.792;4.372;2023-04-01T05:23:15;10.00;99.90
24011;DHT22;12217;50.792;4.372;2023-04-01T05:25:42;9.90;99.90
24011;DHT22;12217;50.792;4.372;2023-04-01T05:28:08;9.80;99.90
24011;DHT22;12217;50.792;4.372;2023-04-01T05:30:33;9.90;99.90
24011;DHT22;12217;50.792;4.372;2023-04-01T05:32:59;9.90;99.90
24011;DHT22;12217;50.792;4.372;2023-04-01T05:35:25;9.90;99.90
24011;DHT22;12217;50.792;4.372;2023-04-01T05:37:51;9.90;99.90
24011;DHT22;12217;50.792;4.372;2023-04-01T05:40:17;9.90;99.90
24011;DHT22;12217;50.792;4.372;2023-04-01T05:42:42;10.00;99.90
24011;DHT22;12217;50.792;4.372;2023-04-01T05:45:08;10.00;99.90
24011;DHT22;12217;50.792;4.372;2023-04-01T05:47:34;10.10;99.90
24011;DHT22;12217;50.792;4.372;2023-04-01T05:50:00;10.00;99.90
24011;DHT22;12217;50.792;4.372;2023-04-01T05:52:25;10.00;99.90
24011;DHT22;12217;50.792;4.372;2023-04-01T05:54:51;10.10;99.90
24011;DHT22;12217;50.792;4.372;2023-04-01T05:57:17;10.00;99.90
24011;DHT22;12217;50.792;4.372;2023-04-01T05:59:42;9.90;99.90
24011;DHT22;12217;50.792;4.372;2023-04-01T06:02:09;9.90;99.90
24011;DHT22;12217;50.792;4.372;2023-04-01T06:04:38;9.90;99.90
24011;DHT22;12217;50.792;4.372;2023-04-01T06:07:12;10.00;99.90
24011;DHT22;12217;50.792;4.372;2023-04-01T06:09:38;9.90;99.90
24011;DHT22;12217;50.792;4.372;2023-04-01T06:15:28;9.90;99.90
24011;DHT22;12217;50.792;4.372;2023-04-01T06:23:16;9.90;99.90
24011;DHT22;12217;50.792;4.372;2023-04-01T06:26:18;9.90;99.90
24011;DHT22;12217;50.792;4.372;2023-04-01T06:46:02;9.70;99.90
24011;DHT22;12217;50.792;4.372;2023-04-01T06:51:27;9.80;99.90
24011;DHT22;12217;50.792;4.372;2023-04-01T06:54:10;9.80;99.90
24011;DHT22;12217;50.792;4.372;2023-04-01T06:56:40;9.70;99.90
24011;DHT22;12217;50.792;4.372;2023-04-01T06:59:31;9.90;99.90
24011;DHT22;12217;50.792;4.372;2023-04-01T07:04:47;10.00;99.90
24011;DHT22;12217;50.792;4.372;2023-04-01T07:09:54;9.90;99.90
24011;DHT22;12217;50.792;4.372;2023-04-01T07:12:51;9.80;99.90
24011;DHT22;12217;50.792;4.372;2023-04-01T07:15:54;9.80;99.90
24011;DHT22;12217;50.792;4.372;2023-04-01T07:18:28;9.80;99.90
24011;DHT22;12217;50.792;4.372;2023-04-01T07:20:56;9.90;99.90
24011;DHT22;12217;50.792;4.372;2023-04-01T07:23:25;9.80;99.90
24011;DHT22;12217;50.792;4.372;2023-04-01T07:25:55;9.90;99.90
24011;DHT22;12217;50.792;4.372;2023-04-01T07:28:23;9.90;99.90
24011;DHT22;12217;50.792;4.372;2023-04-01T07:31:11;9.80;99.90
24011;DHT22;12217;50.792;4.372;2023-04-01T07:34:00;9.80;99.90
24011;DHT22;12217;50.792;4.372;2023-04-01T07:47:44;10.10;99.90
24011;DHT22;12217;50.792;4.372;2023-04-01T07:50:26;10.10;99.90
24011;DHT22;12217;50.792;4.372;2023-04-01T07:53:24;10.30;99.90
24011;DHT22;12217;50.792;4.372;2023-04-01T07:56:34;10.40;99.90
24011;DHT22;12217;50.792;4.372;2023-04-01T08:01:43;10.30;99.90
24011;DHT22;12217;50.792;4.372;2023-04-01T08:07:01;10.40;99.90
24011;DHT22;12217;50.792;4.372;2023-04-01T08:12:42;10.60;99.90
24011;DHT22;12217;50.792;4.372;2023-04-01T08:15:23;10.70;99.90
24011;DHT22;12217;50.792;4.372;2023-04-01T08:25:39;10.20;99.90
24011;DHT22;12217;50.792;4.372;2023-04-01T08:31:21;10.30;99.90
24011;DHT22;12217;50.792;4.372;2023-04-01T08:33:49;10.50;99.90
24011;DHT22;12217;50.792;4.372;2023-04-01T08:36:39;10.30;99.90
24011;DHT22;12217;50.792;4.372;2023-04-01T08:39:11;10.40;99.90
24011;DHT22;12217;50.792;4.372;2023-04-01T08:48:08;10.30;99.90
24011;DHT22;12217;50.792;4.372;2023-04-01T08:50:36;10.20;99.90
24011;DHT22;12217;50.792;4.372;2023-04-01T08:56:23;10.20;99.90
24011;DHT22;12217;50.792;4.372;2023-04-01T09:07:40;10.60;99.90
24011;DHT22;12217;50.792;4.372;2023-04-01T09:13:16;10.30;99.90
24011;DHT22;12217;50.792;4.372;2023-04-01T09:29:38;10.30;99.90
24011;DHT22;12217;50.792;4.372;2023-04-01T09:32:35;10.30;99.90
24011;DHT22;12217;50.792;4.372;2023-04-01T09:37:55;10.70;99.90
24011;DHT22;12217;50.792;4.372;2023-04-01T09:43:06;10.80;99.90
24011;DHT22;12217;50.792;4.372;2023-04-01T09:48:21;10.60;99.90
24011;DHT22;12217;50.792;4.372;2023-04-01T10:04:06;11.10;99.90
24011;DHT22;12217;50.792;4.372;2023-04-01T10:29:57;11.40;99.90
24011;DHT22;12217;50.792;4.372;2023-04-01T10:35:33;11.50;99.90
24011;DHT22;12217;50.792;4.372;2023-04-01T10:44:33;11.40;99.90
24011;DHT22;12217;50.792;4.372;2023-04-01T10:52:22;11.50;99.90
24011;DHT22;12217;50.792;4.372;2023-04-01T10:58:02;11.50;99.90
24011;DHT22;12217;50.792;4.372;2023-04-01T11:03:46;11.60;99.90
24011;DHT22;12217;50.792;4.372;2023-04-01T11:14:58;11.30;99.90
24011;DHT22;12217;50.792;4.372;2023-04-01T11:27:03;11.70;99.90
24011;DHT22;12217;50.792;4.372;2023-04-01T11:41:12;10.90;99.90
24011;DHT22;12217;50.792;4.372;2023-04-01T11:46:15;10.90;99.90
24011;DHT22;12217;50.792;4.372;2023-04-01T11:57:43;11.20;99.90
24011;DHT22;12217;50.792;4.372;2023-04-01T12:38:15;11.10;99.90
24011;DHT22;12217;50.792;4.372;2023-04-01T12:40:57;11.20;99.90
24011;DHT22;12217;50.792;4.372;2023-04-01T12:55:12;10.90;99.90
24011;DHT22;12217;50.792;4.372;2023-04-01T13:11:34;10.80;99.90
24011;DHT22;12217;50.792;4.372;2023-04-01T13:16:52;10.90;99.90
24011;DHT22;12217;50.792;4.372;2023-04-01T13:25:09;10.90;99.90
24011;DHT22;12217;50.792;4.372;2023-04-01T13:28:25;10.80;99.90
24011;DHT22;12217;50.792;4.372;2023-04-01T13:30:39;10.90;99.90
24011;DHT22;12217;50.792;4.372;2023-04-01T13:33:17;10.70;99.90
24011;DHT22;12217;50.792;4.372;2023-04-01T13:43:39;10.50;99.90
24011;DHT22;12217;50.792;4.372;2023-04-01T14:06:37;10.70;99.90
24011;DHT22;12217;50.792;4.372;2023-04-01T14:09:45;10.70;99.90
24011;DHT22;12217;50.792;4.372;2023-04-01T14:23:13;10.90;99.90
24011;DHT22;12217;50.792;4.372;2023-04-01T14:28:29;11.00;99.90
24011;DHT22;12217;50.792;4.372;2023-04-01T14:50:21;10.80;99.90
24011;DHT22;12217;50.792;4.372;2023-04-01T15:03:29;10.80;99.90
24011;DHT22;12217;50.792;4.372;2023-04-01T15:09:29;11.00;99.90
24011;DHT22;12217;50.792;4.372;2023-04-01T15:12:32;11.00;99.90
24011;DHT22;12217;50.792;4.372;2023-04-01T15:18:01;11.10;99.90
24011;DHT22;12217;50.792;4.372;2023-04-01T15:37:54;10.80;99.90
24011;DHT22;12217;50.792;4.372;2023-04-01T15:40:32;10.90;99.90
24011;DHT22;12217;50.792;4.372;2023-04-01T16:11:25;10.30;99.90
24011;DHT22;12217;50.792;4.372;2023-04-01T16:14:24;10.30;99.90
24011;DHT22;12217;50.792;4.372;2023-04-01T16:20:02;10.50;99.90
24011;DHT22;12217;50.792;4.372;2023-04-01T16:22:45;10.40;99.90
24011;DHT22;12217;50.792;4.372;2023-04-01T16:25:26;10.70;99.90
24011;DHT22;12217;50.792;4.372;2023-04-01T16:30:38;10.30;99.90
24011;DHT22;12217;50.792;4.372;2023-04-01T16:36:08;10.40;99.90
24011;DHT22;12217;50.792;4.372;2023-04-01T16:39:06;10.20;99.90
24011;DHT22;12217;50.792;4.372;2023-04-01T16:41:36;10.30;99.90
24011;DHT22;12217;50.792;4.372;2023-04-01T16:44:23;10.50;99.90
24011;DHT22;12217;50.792;4.372;2023-04-01T16:46:54;10.50;99.90
24011;DHT22;12217;50.792;4.372;2023-04-01T16:49:29;10.40;99.90
24011;DHT22;12217;50.792;4.372;2023-04-01T16:52:15;10.40;99.90
24011;DHT22;12217;50.792;4.372;2023-04-01T16:54:53;10.50;99.90
24011;DHT22;12217;50.792;4.372;2023-04-01T16:57:43;10.30;99.90
24011;DHT22;12217;50.792;4.372;2023-04-01T17:00:47;10.30;99.90
24011;DHT22;12217;50.792;4.372;2023-04-01T17:03:24;10.00;99.90
24011;DHT22;12217;50.792;4.372;2023-04-01T17:06:11;10.10;99.90
24011;DHT22;12217;50.792;4.372;2023-04-01T17:11:45;10.30;99.90
24011;DHT22;12217;50.792;4.372;2023-04-01T17:14:34;10.40;99.90
24011;DHT22;12217;50.792;4.372;2023-04-01T17:20:13;10.40;99.90
24011;DHT22;12217;50.792;4.372;2023-04-01T17:23:00;10.70;99.90
24011;DHT22;12217;50.792;4.372;2023-04-01T17:26:04;10.70;99.90
24011;DHT22;12217;50.792;4.372;2023-04-01T17:28:36;10.70;99.90
24011;DHT22;12217;50.792;4.372;2023-04-01T17:39:20;10.80;99.90
24011;DHT22;12217;50.792;4.372;2023-04-01T17:41:57;10.70;99.90
24011;DHT22;12217;50.792;4.372;2023-04-01T17:53:26;10.60;99.90
24011;DHT22;12217;50.792;4.372;2023-04-01T18:02:10;10.30;99.90
24011;DHT22;12217;50.792;4.372;2023-04-01T18:07:59;10.40;99.90
24011;DHT22;12217;50.792;4.372;2023-04-01T18:18:46;10.40;99.90
24011;DHT22;12217;50.792;4.372;2023-04-01T18:26:32;10.50;99.90
24011;DHT22;12217;50.792;4.372;2023-04-01T18:35:28;10.60;99.90
24011;DHT22;12217;50.792;4.372;2023-04-01T18:37:44;10.50;99.90
24011;DHT22;12217;50.792;4.372;2023-04-01T18:40:39;10.70;99.90
24011;DHT22;12217;50.792;4.372;2023-04-01T18:46:00;11.00;99.90
24011;DHT22;12217;50.792;4.372;2023-04-01T18:54:02;10.80;99.90
24011;DHT22;12217;50.792;4.372;2023-04-01T18:56:39;10.70;99.90
24011;DHT22;12217;50.792;4.372;2023-04-01T19:02:31;10.70;99.90
24011;DHT22;12217;50.792;4.372;2023-04-01T19:05:09;10.70;99.90
24011;DHT22;12217;50.792;4.372;2023-04-01T19:07:51;10.70;99.90
24011;DHT22;12217;50.792;4.372;2023-04-01T19:21:33;10.60;99.90
24011;DHT22;12217;50.792;4.372;2023-04-01T19:29:52;10.60;99.90
24011;DHT22;12217;50.792;4.372;2023-04-01T19:35:38;10.70;99.90
24011;DHT22;12217;50.792;4.372;2023-04-01T19:43:50;10.60;99.90
24011;DHT22;12217;50.792;4.372;2023-04-01T19:52:20;10.80;99.90
24011;DHT22;12217;50.792;4.372;2023-04-01T19:57:47;10.70;99.90
24011;DHT22;12217;50.792;4.372;2023-04-01T20:00:50;10.70;99.90
24011;DHT22;12217;50.792;4.372;2023-04-01T20:14:33;10.60;99.90
24011;DHT22;12217;50.792;4.372;2023-04-01T20:17:12;10.80;99.90
24011;DHT22;12217;50.792;4.372;2023-04-01T20:19:55;11.10;99.90
24011;DHT22;12217;50.792;4.372;2023-04-01T20:24:51;11.10;99.90
24011;DHT22;12217;50.792;4.372;2023-04-01T20:27:30;11.10;99.90
24011;DHT22;12217;50.792;4.372;2023-04-01T20:33:10;11.00;99.90
24011;DHT22;12217;50.792;4.372;2023-04-01T20:38:51;10.90;99.90
24011;DHT22;12217;50.792;4.372;2023-04-01T20:44:12;10.90;99.90
24011;DHT22;12217;50.792;4.372;2023-04-01T20:52:23;11.00;99.90
24011;DHT22;12217;50.792;4.372;2023-04-01T20:57:49;10.90;99.90
24011;DHT22;12217;50.792;4.372;2023-04-01T21:03:26;11.00;99.90
24011;DHT22;12217;50.792;4.372;2023-04-01T21:06:13;11.20;99.90
24011;DHT22;12217;50.792;4.372;2023-04-01T21:09:11;11.10;99.90
24011;DHT22;12217;50.792;4.372;2023-04-01T21:11:56;11.00;99.90
24011;DHT22;12217;50.792;4.372;2023-04-01T21:14:54;11.00;99.90
24011;DHT22;12217;50.792;4.372;2023-04-01T21:25:44;11.00;99.90
24011;DHT22;12217;50.792;4.372;2023-04-01T21:43:01;11.20;99.90
24011;DHT22;12217;50.792;4.372;2023-04-01T21:54:46;11.10;99.90
24011;DHT22;12217;50.792;4.372;2023-04-01T21:57:51;11.10;99.90
24011;DHT22;12217;50.792;4.372;2023-04-01T22:00:24;11.10;99.90
24011;DHT22;12217;50.792;4.372;2023-04-01T22:11:07;11.10;99.90
24011;DHT22;12217;50.792;4.372;2023-04-01T22:14:09;11.20;99.90
24011;DHT22;12217;50.792;4.372;2023-04-01T22:22:21;11.30;99.90
24011;DHT22;12217;50.792;4.372;2023-04-01T22:25:10;11.20;99.90
24011;DHT22;12217;50.792;4.372;2023-04-01T22:30:24;11.40;99.90
24011;DHT22;12217;50.792;4.372;2023-04-01T22:33:08;11.40;99.90
24011;DHT22;12217;50.792;4.372;2023-04-01T22:41:41;11.30;99.90
24011;DHT22;12217;50.792;4.372;2023-04-01T22:44:26;11.30;99.90
24011;DHT22;12217;50.792;4.372;2023-04-01T22:47:04;11.30;99.90
24011;DHT22;12217;50.792;4.372;2023-04-01T22:52:42;11.20;99.90
24011;DHT22;12217;50.792;4.372;2023-04-01T22:55:28;11.10;99.90
24011;DHT22;12217;50.792;4.372;2023-04-01T22:58:05;10.90;99.90
24011;DHT22;12217;50.792;4.372;2023-04-01T23:00:47;10.90;99.90
24011;DHT22;12217;50.792;4.372;2023-04-01T23:03:36;10.90;99.90
24011;DHT22;12217;50.792;4.372;2023-04-01T23:06:06;11.00;99.90
24011;DHT22;12217;50.792;4.372;2023-04-01T23:24:55;11.10;99.90
24011;DHT22;12217;50.792;4.372;2023-04-01T23:27:39;11.20;99.90
24011;DHT22;12217;50.792;4.372;2023-04-01T23:33:22;11.10;99.90
24011;DHT22;12217;50.792;4.372;2023-04-01T23:35:52;10.90;99.90
24011;DHT22;12217;50.792;4.372;2023-04-01T23:38:21;10.80;99.90
24011;DHT22;12217;50.792;4.372;2023-04-01T23:40:52;10.80;99.90
24011;DHT22;12217;50.792;4.372;2023-04-01T23:43:36;10.80;99.90
24011;DHT22;12217;50.792;4.372;2023-04-01T23:46:03;10.70;99.90
24011;DHT22;12217;50.792;4.372;2023-04-01T23:48:35;10.80;99.90
24011;DHT22;12217;50.792;4.372;2023-04-01T23:51:02;10.70;99.90
24011;DHT22;12217;50.792;4.372;2023-04-01T23:53:33;10.70;99.90
24011;DHT22;12217;50.792;4.372;2023-04-01T23:56:02;10.90;99.90
24011;DHT22;12217;50.792;4.372;2023-04-01T23:58:42;11.00;99.90
